Terminal Aerodrome Forecast
Issued by NWS

Home | Current Version | Previous Version | Text Only | Print | Product List | Glossary On
Versions: 1 2 3 4 5 6 7 8 9 10 11 12 13 14 15
000
FTUS43 KMQT 271130
TAFCMX
TAF
KCMX 271130Z 2712/2812 02005KT P6SM BKN120
     FM271800 04006KT P6SM VCSH BKN050
     FM272100 05006KT P6SM SCT060
     FM280100 05003KT P6SM SCT150=

USA.gov is the U.S. government's official web portal to all federal, state and local government web resources and services.